Time;durP1;ratioP1;P1;durP2;ratioP2;P2;SDS_P1;SDS_P2;PMS_P1;PMS_P2;Temp;Humidity;BMP_temperature;BMP_pressure;BME280_temperature;BME280_humidity;BME280_pressure;Samples;Min_cycle;Max_cycle;Signal;HPM_P1;HPM_P2
2023/01/22 00:01:11;;;;;;;;;;;1.90;99.90;;;;;;7354686;19;111094;-95
2023/01/22 00:03:39;;;;;;;;;;;2.10;99.90;;;;;;7353724;19;108694;-96
2023/01/22 00:06:07;;;;;;;;;;;2.10;99.90;;;;;;7355739;19;111505;-94
2023/01/22 00:08:34;;;;;;;;;;;2.20;99.90;;;;;;7352559;19;107974;-96
2023/01/22 00:11:02;;;;;;;;;;;2.10;99.90;;;;;;7354177;19;110106;-95
2023/01/22 00:13:30;;;;;;;;;;;2.20;99.90;;;;;;7354146;19;111721;-95
2023/01/22 00:15:57;;;;;;;;;;;2.30;99.90;;;;;;7351599;19;108496;-95
2023/01/22 00:18:25;;;;;;;;;;;2.30;99.90;;;;;;7352855;19;110636;-94
2023/01/22 00:20:53;;;;;;;;;;;2.30;99.90;;;;;;7354637;19;113180;-96
2023/01/22 00:23:21;;;;;;;;;;;2.40;99.90;;;;;;7351395;19;108148;-95
2023/01/22 00:25:49;;;;;;;;;;;2.50;99.90;;;;;;7352409;19;109507;-95
2023/01/22 00:28:16;;;;;;;;;;;2.40;99.90;;;;;;7356579;19;111198;-95
2023/01/22 00:30:44;;;;;;;;;;;2.40;99.90;;;;;;7353478;19;111578;-96
2023/01/22 00:33:11;;;;;;;;;;;2.50;99.90;;;;;;7351144;19;111980;-96
2023/01/22 00:35:38;;;;;;;;;;;2.40;99.90;;;;;;7351560;19;108215;-96
2023/01/22 00:38:06;;;;;;;;;;;2.50;99.90;;;;;;7353000;19;110466;-96
2023/01/22 00:40:33;;;;;;;;;;;2.60;99.90;;;;;;7352072;19;110062;-96
2023/01/22 00:43:01;;;;;;;;;;;2.60;99.90;;;;;;7351982;19;108541;-96
2023/01/22 00:45:29;;;;;;;;;;;2.70;99.90;;;;;;7352566;19;109562;-95
2023/01/22 00:47:56;;;;;;;;;;;2.60;99.90;;;;;;7350381;19;111192;-96
2023/01/22 00:50:24;;;;;;;;;;;2.50;99.90;;;;;;7355990;19;108313;-95
2023/01/22 00:52:52;;;;;;;;;;;2.40;99.90;;;;;;7351161;19;111047;-95
2023/01/22 00:55:19;;;;;;;;;;;2.30;99.90;;;;;;7350144;19;108466;-96
2023/01/22 00:57:47;;;;;;;;;;;2.30;99.90;;;;;;7353057;19;111779;-95
2023/01/22 01:00:16;;;;;;;;;;;2.40;99.90;;;;;;7351025;19;112479;-96
2023/01/22 01:05:30;;;;;;;;;;;2.50;99.90;;;;;;7353032;19;111668;-96
2023/01/22 01:07:58;;;;;;;;;;;2.50;99.90;;;;;;7350010;19;111395;-96
2023/01/22 01:10:26;;;;;;;;;;;2.50;99.90;;;;;;7350910;19;108103;-96
2023/01/22 01:12:53;;;;;;;;;;;2.40;99.90;;;;;;7355923;19;111641;-96
2023/01/22 01:15:21;;;;;;;;;;;2.40;99.90;;;;;;7350123;19;108686;-95
2023/01/22 01:17:48;;;;;;;;;;;2.50;99.90;;;;;;7351210;19;111009;-95
2023/01/22 01:20:15;;;;;;;;;;;2.40;99.90;;;;;;7351028;19;111956;-96
2023/01/22 01:22:43;;;;;;;;;;;2.40;99.90;;;;;;7352706;19;108048;-96
2023/01/22 01:25:11;;;;;;;;;;;2.40;99.90;;;;;;7352574;19;111170;-95
2023/01/22 01:27:38;;;;;;;;;;;2.50;99.90;;;;;;7346892;19;111370;-95
2023/01/22 01:30:06;;;;;;;;;;;2.40;99.90;;;;;;7349793;19;108428;-95
2023/01/22 01:32:33;;;;;;;;;;;2.20;99.90;;;;;;7352872;19;110069;-95
2023/01/22 01:35:00;;;;;;;;;;;2.10;99.90;;;;;;7348797;19;108555;-96
2023/01/22 01:37:27;;;;;;;;;;;2.20;99.90;;;;;;7349164;19;110436;-95
2023/01/22 01:39:54;;;;;;;;;;;2.20;99.90;;;;;;7348344;19;112302;-95
2023/01/22 01:42:28;;;;;;;;;;;2.30;99.90;;;;;;7347409;19;108741;-95
2023/01/22 01:45:13;;;;;;;;;;;2.20;99.90;;;;;;7348368;19;110342;-96
2023/01/22 01:47:41;;;;;;;;;;;2.20;99.90;;;;;;7344689;19;113184;-96
2023/01/22 01:50:08;;;;;;;;;;;2.20;99.90;;;;;;7351468;19;108198;-96
2023/01/22 01:52:35;;;;;;;;;;;2.10;99.90;;;;;;7349886;19;112172;-95
2023/01/22 01:55:03;;;;;;;;;;;2.10;99.90;;;;;;7355019;19;111532;-95
2023/01/22 01:57:31;;;;;;;;;;;2.20;99.90;;;;;;7349873;19;112254;-95
2023/01/22 01:59:59;;;;;;;;;;;2.10;99.90;;;;;;7351455;19;112712;-96
2023/01/22 02:02:26;;;;;;;;;;;2.10;99.90;;;;;;7351047;19;108416;-96
2023/01/22 02:04:54;;;;;;;;;;;2.00;99.90;;;;;;7349166;19;110672;-96
2023/01/22 02:07:38;;;;;;;;;;;2.00;99.90;;;;;;7186460;19;3798872;-94
2023/01/22 02:10:06;;;;;;;;;;;2.10;99.90;;;;;;7382191;19;108400;-93
2023/01/22 02:12:33;;;;;;;;;;;2.00;99.90;;;;;;7386280;19;108242;-92
2023/01/22 02:15:02;;;;;;;;;;;2.00;99.90;;;;;;7382467;19;109182;-94
2023/01/22 02:17:29;;;;;;;;;;;2.00;99.90;;;;;;7385293;19;108589;-93
2023/01/22 02:19:56;;;;;;;;;;;2.00;99.90;;;;;;7380547;19;108911;-94
2023/01/22 02:22:31;;;;;;;;;;;2.00;99.90;;;;;;7382949;19;109670;-93
2023/01/22 02:24:58;;;;;;;;;;;1.90;99.90;;;;;;7381945;19;108386;-93
2023/01/22 02:27:25;;;;;;;;;;;1.90;99.90;;;;;;7385753;19;108651;-93
2023/01/22 02:29:52;;;;;;;;;;;1.90;99.90;;;;;;7385467;19;109101;-93
2023/01/22 02:32:19;;;;;;;;;;;1.90;99.90;;;;;;7384878;19;109526;-93
2023/01/22 02:34:46;;;;;;;;;;;1.80;99.90;;;;;;7385033;19;108370;-94
2023/01/22 02:37:13;;;;;;;;;;;1.90;99.90;;;;;;7384920;19;108449;-93
2023/01/22 02:39:40;;;;;;;;;;;1.90;99.90;;;;;;7384668;19;108293;-93
2023/01/22 02:42:07;;;;;;;;;;;1.90;99.90;;;;;;7375518;19;111320;-93
2023/01/22 02:44:34;;;;;;;;;;;1.80;99.90;;;;;;7377925;19;108491;-94
2023/01/22 02:47:01;;;;;;;;;;;1.80;99.90;;;;;;7377775;19;108726;-94
2023/01/22 02:49:28;;;;;;;;;;;1.80;99.90;;;;;;7381423;19;111557;-93
2023/01/22 02:51:55;;;;;;;;;;;1.90;99.90;;;;;;7375731;19;108119;-94
2023/01/22 02:54:22;;;;;;;;;;;1.90;99.90;;;;;;7374705;19;109539;-93
2023/01/22 02:56:49;;;;;;;;;;;2.00;99.90;;;;;;7383127;19;108348;-93
2023/01/22 02:59:16;;;;;;;;;;;2.00;99.90;;;;;;7381801;19;108254;-93
2023/01/22 03:01:43;;;;;;;;;;;2.00;99.90;;;;;;7379701;19;109010;-93
2023/01/22 03:04:10;;;;;;;;;;;2.10;99.90;;;;;;7381635;19;108617;-93
2023/01/22 03:06:44;;;;;;;;;;;2.10;99.90;;;;;;7378086;19;108624;-93
2023/01/22 03:09:13;;;;;;;;;;;2.00;99.90;;;;;;7379871;19;110980;-93
2023/01/22 03:11:40;;;;;;;;;;;2.00;99.90;;;;;;7386679;19;108444;-93
2023/01/22 03:22:24;;;;;;;;;;;1.90;99.90;;;;;;7351760;19;109563;-93
2023/01/22 03:24:52;;;;;;;;;;;1.90;99.90;;;;;;7351629;19;108844;-93
2023/01/22 03:27:20;;;;;;;;;;;1.90;99.90;;;;;;7350677;19;108928;-92
2023/01/22 03:29:48;;;;;;;;;;;1.90;99.90;;;;;;7351150;19;109453;-93
2023/01/22 03:32:15;;;;;;;;;;;1.90;99.90;;;;;;7350891;19;108424;-92
2023/01/22 03:34:44;;;;;;;;;;;1.80;99.90;;;;;;7359929;19;108325;-91
2023/01/22 03:37:12;;;;;;;;;;;1.70;99.90;;;;;;7350376;19;108645;-92
2023/01/22 03:39:39;;;;;;;;;;;1.70;99.90;;;;;;7353339;19;108535;-92
2023/01/22 03:42:06;;;;;;;;;;;1.80;99.90;;;;;;7350838;19;112366;-92
2023/01/22 03:44:33;;;;;;;;;;;1.80;99.90;;;;;;7352070;19;108232;-92
2023/01/22 03:47:00;;;;;;;;;;;1.70;99.90;;;;;;7349357;19;110359;-93
2023/01/22 03:49:27;;;;;;;;;;;1.70;99.90;;;;;;7345879;19;109608;-92
2023/01/22 03:51:55;;;;;;;;;;;1.60;99.90;;;;;;7343073;19;108386;-93
2023/01/22 03:54:22;;;;;;;;;;;1.60;99.90;;;;;;7344173;19;108135;-92
2023/01/22 03:56:49;;;;;;;;;;;1.60;99.90;;;;;;7350231;19;109195;-93
2023/01/22 03:59:16;;;;;;;;;;;1.60;99.90;;;;;;7345801;19;108183;-94
2023/01/22 04:01:43;;;;;;;;;;;1.70;99.90;;;;;;7346904;19;108266;-92
2023/01/22 04:04:10;;;;;;;;;;;1.70;99.90;;;;;;7347856;19;108467;-92
2023/01/22 04:06:37;;;;;;;;;;;1.70;99.90;;;;;;7345172;19;108687;-93
2023/01/22 04:09:04;;;;;;;;;;;1.70;99.90;;;;;;7344363;19;109073;-92
2023/01/22 04:11:31;;;;;;;;;;;1.70;99.90;;;;;;7345189;19;108977;-93
2023/01/22 04:13:58;;;;;;;;;;;1.60;99.90;;;;;;7347090;19;108288;-93
2023/01/22 04:16:25;;;;;;;;;;;1.60;99.90;;;;;;7344508;19;111438;-93
2023/01/22 04:18:52;;;;;;;;;;;1.70;99.90;;;;;;7353719;19;108574;-93
2023/01/22 04:21:19;;;;;;;;;;;1.70;99.90;;;;;;7347441;19;109248;-93
2023/01/22 04:23:46;;;;;;;;;;;1.70;99.90;;;;;;7351114;19;108721;-93
2023/01/22 04:26:13;;;;;;;;;;;1.70;99.90;;;;;;7347184;19;108179;-93
2023/01/22 04:28:40;;;;;;;;;;;1.70;99.90;;;;;;7346754;19;109550;-93
2023/01/22 04:31:08;;;;;;;;;;;1.70;99.90;;;;;;7348757;19;108170;-93
2023/01/22 04:33:36;;;;;;;;;;;1.70;99.90;;;;;;7349967;19;108818;-93
2023/01/22 04:36:03;;;;;;;;;;;1.70;99.90;;;;;;7347991;19;110071;-93
2023/01/22 04:38:30;;;;;;;;;;;1.70;99.90;;;;;;7354731;19;108278;-93
2023/01/22 04:40:57;;;;;;;;;;;1.70;99.90;;;;;;7347821;19;109824;-93
2023/01/22 04:43:24;;;;;;;;;;;1.70;99.90;;;;;;7347280;19;108662;-93
2023/01/22 04:45:51;;;;;;;;;;;1.60;99.90;;;;;;7347486;19;111074;-93
2023/01/22 04:48:20;;;;;;;;;;;1.60;99.90;;;;;;7347293;19;109914;-93
2023/01/22 04:50:48;;;;;;;;;;;1.60;99.90;;;;;;7348902;19;108457;-92
2023/01/22 04:53:15;;;;;;;;;;;1.70;99.90;;;;;;7346619;19;108280;-93
2023/01/22 04:55:42;;;;;;;;;;;1.60;99.90;;;;;;7347937;19;109332;-93
2023/01/22 04:58:09;;;;;;;;;;;1.60;99.90;;;;;;7348581;19;108594;-93
2023/01/22 05:00:36;;;;;;;;;;;1.60;99.90;;;;;;7354522;19;108282;-93
2023/01/22 05:03:03;;;;;;;;;;;1.60;99.90;;;;;;7348869;19;109385;-93
2023/01/22 05:05:31;;;;;;;;;;;1.60;99.90;;;;;;7347882;19;108926;-92
2023/01/22 05:07:59;;;;;;;;;;;1.50;99.90;;;;;;7348144;19;110268;-93
2023/01/22 05:10:26;;;;;;;;;;;1.50;99.90;;;;;;7346574;19;108483;-94
2023/01/22 05:12:53;;;;;;;;;;;1.50;99.90;;;;;;7350381;19;108105;-93
2023/01/22 05:15:20;;;;;;;;;;;1.40;99.90;;;;;;7346835;19;109786;-93
2023/01/22 05:17:51;;;;;;;;;;;1.40;99.90;;;;;;7348410;19;108196;-93
2023/01/22 05:20:18;;;;;;;;;;;1.40;99.90;;;;;;7348903;19;108446;-93
2023/01/22 05:22:46;;;;;;;;;;;1.30;99.90;;;;;;7354791;19;109108;-93
2023/01/22 05:25:13;;;;;;;;;;;1.30;99.90;;;;;;7348090;19;108374;-92
2023/01/22 05:27:40;;;;;;;;;;;1.40;99.90;;;;;;7347649;19;109605;-93
2023/01/22 05:30:07;;;;;;;;;;;1.40;99.90;;;;;;7345010;19;108450;-92
2023/01/22 05:32:34;;;;;;;;;;;1.40;99.90;;;;;;7348763;19;108656;-93
2023/01/22 05:35:02;;;;;;;;;;;1.40;99.90;;;;;;7347404;19;109449;-93
2023/01/22 05:37:29;;;;;;;;;;;1.30;99.90;;;;;;7348751;19;108857;-94
2023/01/22 05:39:56;;;;;;;;;;;1.40;99.90;;;;;;7345941;19;109114;-94
2023/01/22 05:42:23;;;;;;;;;;;1.30;99.90;;;;;;7345127;19;109609;-94
2023/01/22 05:44:50;;;;;;;;;;;1.30;99.90;;;;;;7370680;19;108262;-92
2023/01/22 05:47:17;;;;;;;;;;;1.30;99.90;;;;;;7365890;19;109396;-93
2023/01/22 05:49:44;;;;;;;;;;;1.30;99.90;;;;;;7368813;19;108341;-92
2023/01/22 05:52:11;;;;;;;;;;;1.30;99.90;;;;;;7370607;19;109430;-92
2023/01/22 05:54:38;;;;;;;;;;;1.30;99.90;;;;;;7367349;19;110368;-91
2023/01/22 05:57:05;;;;;;;;;;;1.30;99.90;;;;;;7361168;19;108531;-92
2023/01/22 05:59:32;;;;;;;;;;;1.20;99.90;;;;;;7346505;19;108408;-93
2023/01/22 06:02:00;;;;;;;;;;;1.10;99.90;;;;;;7347072;19;109038;-93
2023/01/22 06:04:27;;;;;;;;;;;1.20;99.90;;;;;;7346531;19;108237;-94
2023/01/22 06:06:54;;;;;;;;;;;1.10;99.90;;;;;;7351561;19;108663;-92
2023/01/22 06:09:21;;;;;;;;;;;1.00;99.90;;;;;;7345456;19;108670;-95
2023/01/22 06:11:48;;;;;;;;;;;1.00;99.90;;;;;;7348044;19;108283;-93
2023/01/22 06:14:15;;;;;;;;;;;1.00;99.90;;;;;;7344955;19;111475;-93
2023/01/22 06:16:42;;;;;;;;;;;1.00;99.90;;;;;;7345004;19;109499;-94
2023/01/22 06:19:09;;;;;;;;;;;1.00;99.90;;;;;;7346659;19;108571;-94
2023/01/22 06:21:36;;;;;;;;;;;1.00;99.90;;;;;;7349313;19;108169;-93
2023/01/22 06:24:03;;;;;;;;;;;1.00;99.90;;;;;;7347791;19;109140;-93
2023/01/22 06:26:30;;;;;;;;;;;1.00;99.90;;;;;;7352719;19;108122;-93
2023/01/22 06:28:57;;;;;;;;;;;1.00;99.90;;;;;;7347756;19;107949;-94
2023/01/22 06:31:24;;;;;;;;;;;1.00;99.90;;;;;;7346614;19;108201;-93
2023/01/22 06:33:52;;;;;;;;;;;1.00;99.90;;;;;;7339113;19;109573;-93
2023/01/22 06:36:19;;;;;;;;;;;1.00;99.90;;;;;;7341309;19;108681;-93
2023/01/22 06:38:46;;;;;;;;;;;1.00;99.90;;;;;;7339588;19;108148;-93
2023/01/22 06:41:13;;;;;;;;;;;1.00;99.90;;;;;;7339912;19;108403;-93
2023/01/22 06:43:40;;;;;;;;;;;1.00;99.90;;;;;;7338472;19;108472;-93
2023/01/22 06:46:07;;;;;;;;;;;1.00;99.90;;;;;;7341021;19;110498;-93
2023/01/22 06:48:34;;;;;;;;;;;1.00;99.90;;;;;;7350528;19;109335;-93
2023/01/22 06:51:02;;;;;;;;;;;1.00;99.90;;;;;;7345642;19;108844;-93
2023/01/22 06:53:30;;;;;;;;;;;1.00;99.90;;;;;;7349151;19;108480;-93
2023/01/22 06:56:00;;;;;;;;;;;1.00;99.90;;;;;;7353241;19;108594;-94
2023/01/22 06:58:27;;;;;;;;;;;1.10;99.90;;;;;;7352537;19;108563;-94
2023/01/22 07:01:03;;;;;;;;;;;1.10;99.90;;;;;;7353302;19;109011;-93
2023/01/22 07:03:30;;;;;;;;;;;1.10;99.90;;;;;;7352833;19;108406;-94
2023/01/22 07:05:59;;;;;;;;;;;1.10;99.90;;;;;;7351569;19;108674;-95
2023/01/22 07:08:27;;;;;;;;;;;1.00;99.90;;;;;;7350241;19;110657;-95
2023/01/22 07:10:54;;;;;;;;;;;1.00;99.90;;;;;;7357320;19;107896;-95
2023/01/22 07:13:21;;;;;;;;;;;1.00;99.90;;;;;;7352128;19;109981;-96
2023/01/22 07:15:48;;;;;;;;;;;1.00;99.90;;;;;;7349107;19;108292;-95
2023/01/22 07:18:18;;;;;;;;;;;1.10;99.90;;;;;;7349121;19;108123;-94
2023/01/22 07:20:46;;;;;;;;;;;1.10;99.90;;;;;;7349711;19;108761;-94
2023/01/22 07:23:13;;;;;;;;;;;1.10;99.90;;;;;;7351305;19;107997;-93
2023/01/22 07:25:40;;;;;;;;;;;1.00;99.90;;;;;;7352708;19;109401;-95
2023/01/22 07:28:07;;;;;;;;;;;1.00;99.90;;;;;;7350421;19;108954;-95
2023/01/22 07:30:34;;;;;;;;;;;1.00;99.90;;;;;;7351019;19;108607;-95
2023/01/22 07:33:02;;;;;;;;;;;1.00;99.90;;;;;;7356087;19;108479;-94
2023/01/22 07:35:29;;;;;;;;;;;1.00;99.90;;;;;;7351237;19;108610;-95
2023/01/22 07:37:57;;;;;;;;;;;1.00;99.90;;;;;;7350728;19;108373;-95
2023/01/22 07:40:24;;;;;;;;;;;1.00;99.90;;;;;;7347510;19;110577;-93
2023/01/22 07:42:52;;;;;;;;;;;1.00;99.90;;;;;;7350680;19;112137;-93
2023/01/22 07:45:19;;;;;;;;;;;1.00;99.90;;;;;;7352558;19;108416;-94
2023/01/22 07:48:13;;;;;;;;;;;1.00;99.90;;;;;;7350058;19;109813;-93
2023/01/22 07:51:11;;;;;;;;;;;1.00;99.90;;;;;;7348568;19;108518;-93
2023/01/22 07:54:12;;;;;;;;;;;1.00;99.90;;;;;;7350689;19;108445;-94
2023/01/22 07:57:15;;;;;;;;;;;1.00;99.90;;;;;;7354562;19;108340;-94
2023/01/22 08:00:30;;;;;;;;;;;1.10;99.90;;;;;;7349638;19;108183;-95
2023/01/22 08:03:53;;;;;;;;;;;1.10;99.90;;;;;;7350489;19;109922;-93
2023/01/22 08:06:47;;;;;;;;;;;1.20;99.90;;;;;;7347322;19;108800;-94
2023/01/22 08:10:09;;;;;;;;;;;1.20;99.90;;;;;;7347225;19;109213;-94
2023/01/22 08:13:33;;;;;;;;;;;1.10;99.90;;;;;;7349882;19;110597;-95
2023/01/22 08:17:05;;;;;;;;;;;1.20;99.90;;;;;;7344618;19;109477;-94
2023/01/22 08:20:07;;;;;;;;;;;1.20;99.90;;;;;;7345820;19;108776;-94
2023/01/22 08:23:10;;;;;;;;;;;1.20;99.90;;;;;;7348672;19;109362;-94
2023/01/22 08:26:36;;;;;;;;;;;1.20;99.90;;;;;;7352862;19;108549;-93
2023/01/22 08:30:01;;;;;;;;;;;1.30;99.90;;;;;;7348926;19;110102;-95
2023/01/22 08:33:07;;;;;;;;;;;1.30;99.90;;;;;;7350508;19;107993;-95
2023/01/22 08:36:33;;;;;;;;;;;1.40;99.90;;;;;;7345352;19;108455;-95
2023/01/22 08:43:13;;;;;;;;;;;1.50;99.90;;;;;;7347600;19;108143;-96
2023/01/22 08:46:27;;;;;;;;;;;1.70;99.90;;;;;;7347720;19;108184;-96
2023/01/22 08:49:38;;;;;;;;;;;1.70;99.90;;;;;;7347004;19;108601;-95
2023/01/22 08:53:00;;;;;;;;;;;1.60;99.90;;;;;;7350793;19;108452;-96
2023/01/22 08:56:17;;;;;;;;;;;1.50;99.90;;;;;;7348067;19;112012;-94
2023/01/22 08:59:30;;;;;;;;;;;1.50;99.90;;;;;;7347317;19;108845;-94
2023/01/22 09:02:35;;;;;;;;;;;1.50;99.90;;;;;;7344153;19;108235;-94
2023/01/22 09:05:38;;;;;;;;;;;1.50;99.90;;;;;;7343140;19;109634;-94
2023/01/22 09:08:19;;;;;;;;;;;1.60;99.90;;;;;;7342678;19;108445;-94
2023/01/22 09:10:50;;;;;;;;;;;1.60;99.90;;;;;;7342252;19;108365;-90
2023/01/22 09:13:16;;;;;;;;;;;1.60;99.90;;;;;;7343122;19;112318;-89
2023/01/22 09:15:43;;;;;;;;;;;1.60;99.90;;;;;;7343102;19;108853;-90
2023/01/22 09:18:10;;;;;;;;;;;1.60;99.90;;;;;;7350336;19;109707;-91
2023/01/22 09:20:37;;;;;;;;;;;1.60;99.90;;;;;;7343568;19;108794;-91
2023/01/22 09:23:04;;;;;;;;;;;1.60;99.90;;;;;;7342603;19;109790;-91
2023/01/22 09:25:31;;;;;;;;;;;1.70;99.90;;;;;;7344764;19;112761;-91
2023/01/22 09:27:58;;;;;;;;;;;1.70;99.90;;;;;;7344806;19;108172;-93
2023/01/22 09:30:28;;;;;;;;;;;1.70;99.90;;;;;;7342421;19;111315;-91
2023/01/22 09:32:56;;;;;;;;;;;1.70;99.90;;;;;;7343025;19;112296;-91
2023/01/22 09:35:23;;;;;;;;;;;1.80;99.90;;;;;;7341337;19;108945;-91
2023/01/22 09:37:50;;;;;;;;;;;1.80;99.90;;;;;;7344349;19;108381;-90
2023/01/22 09:40:22;;;;;;;;;;;1.80;99.90;;;;;;7347374;19;113524;-90
2023/01/22 09:42:53;;;;;;;;;;;1.90;99.90;;;;;;7343083;19;110858;-91
2023/01/22 09:45:22;;;;;;;;;;;1.90;99.90;;;;;;7344679;19;110311;-89
2023/01/22 09:47:51;;;;;;;;;;;1.90;99.90;;;;;;7345018;19;108559;-92
2023/01/22 09:50:18;;;;;;;;;;;2.00;99.90;;;;;;7341404;19;110337;-91
2023/01/22 09:52:46;;;;;;;;;;;1.90;99.90;;;;;;7340796;19;113210;-91
2023/01/22 09:55:18;;;;;;;;;;;2.00;99.90;;;;;;7342221;19;108809;-91
2023/01/22 09:57:46;;;;;;;;;;;2.00;99.90;;;;;;7343583;19;111695;-92
2023/01/22 10:00:20;;;;;;;;;;;2.00;99.90;;;;;;7341532;19;111665;-91
2023/01/22 10:02:56;;;;;;;;;;;2.00;99.90;;;;;;7346962;19;108721;-90
2023/01/22 10:05:29;;;;;;;;;;;2.10;99.90;;;;;;7343016;19;109609;-92
2023/01/22 10:07:59;;;;;;;;;;;2.10;99.90;;;;;;7345508;19;108301;-90
2023/01/22 10:10:27;;;;;;;;;;;2.10;99.90;;;;;;7341741;19;108475;-91
2023/01/22 10:13:00;;;;;;;;;;;2.20;99.90;;;;;;7343015;19;111858;-91
2023/01/22 10:15:27;;;;;;;;;;;2.20;99.90;;;;;;7336948;19;108954;-89
2023/01/22 10:17:56;;;;;;;;;;;2.30;99.90;;;;;;7344156;19;111334;-90
2023/01/22 10:20:23;;;;;;;;;;;2.40;99.90;;;;;;7341020;19;110509;-91
2023/01/22 10:23:00;;;;;;;;;;;2.40;99.90;;;;;;7341901;19;108645;-90
2023/01/22 10:25:27;;;;;;;;;;;2.40;99.90;;;;;;7347906;19;109127;-91
2023/01/22 10:27:59;;;;;;;;;;;2.30;99.90;;;;;;7348419;19;109971;-92
2023/01/22 10:30:27;;;;;;;;;;;2.30;99.90;;;;;;7350029;19;108842;-91
2023/01/22 10:32:58;;;;;;;;;;;2.30;99.90;;;;;;7351254;19;110396;-91
2023/01/22 10:35:25;;;;;;;;;;;2.30;99.90;;;;;;7348184;19;109257;-91
2023/01/22 10:37:53;;;;;;;;;;;2.40;99.90;;;;;;7349178;19;110378;-91
2023/01/22 10:40:31;;;;;;;;;;;2.40;99.90;;;;;;7343464;19;109155;-89
2023/01/22 10:43:01;;;;;;;;;;;2.40;99.90;;;;;;7347574;19;109219;-89
2023/01/22 10:45:28;;;;;;;;;;;2.30;99.90;;;;;;7345867;19;112144;-90
2023/01/22 10:48:02;;;;;;;;;;;2.40;99.90;;;;;;7354280;19;112893;-91
2023/01/22 10:50:29;;;;;;;;;;;2.40;99.90;;;;;;7346234;19;109614;-89
2023/01/22 10:52:56;;;;;;;;;;;2.40;99.90;;;;;;7347404;19;110300;-91
2023/01/22 10:55:28;;;;;;;;;;;2.40;99.90;;;;;;7345822;19;109041;-90
2023/01/22 10:57:57;;;;;;;;;;;2.50;99.90;;;;;;7347231;19;111850;-89
2023/01/22 11:00:28;;;;;;;;;;;2.50;99.90;;;;;;7344913;19;113023;-89
2023/01/22 11:03:13;;;;;;;;;;;2.50;99.90;;;;;;7342320;19;108664;-89
2023/01/22 11:05:42;;;;;;;;;;;2.40;99.90;;;;;;7341020;19;109425;-90
2023/01/22 11:08:15;;;;;;;;;;;2.40;99.90;;;;;;7346398;19;109996;-89
2023/01/22 11:10:54;;;;;;;;;;;2.40;99.90;;;;;;7340930;19;109706;-89
2023/01/22 11:13:30;;;;;;;;;;;2.40;99.90;;;;;;7341790;19;109993;-89
2023/01/22 11:16:09;;;;;;;;;;;2.50;99.90;;;;;;7342037;19;108874;-89
2023/01/22 11:18:38;;;;;;;;;;;2.50;99.90;;;;;;7340027;19;109904;-90
2023/01/22 11:21:22;;;;;;;;;;;2.50;99.90;;;;;;7339851;19;110704;-90
2023/01/22 11:23:51;;;;;;;;;;;2.40;99.90;;;;;;7338223;19;108972;-89
2023/01/22 11:26:36;;;;;;;;;;;2.50;99.90;;;;;;7339682;19;112326;-89
2023/01/22 11:29:09;;;;;;;;;;;2.50;99.90;;;;;;7338943;19;113238;-89
2023/01/22 11:31:49;;;;;;;;;;;2.50;99.90;;;;;;7346380;19;109302;-88
2023/01/22 11:34:16;;;;;;;;;;;2.40;99.90;;;;;;7333279;19;112534;-88
2023/01/22 11:37:01;;;;;;;;;;;2.50;99.90;;;;;;7338290;19;108592;-88
2023/01/22 11:39:43;;;;;;;;;;;2.50;99.90;;;;;;7341395;19;112680;-88
2023/01/22 11:42:21;;;;;;;;;;;2.60;99.90;;;;;;7338063;19;109160;-88
2023/01/22 11:44:57;;;;;;;;;;;2.60;99.90;;;;;;7341591;19;108537;-90
2023/01/22 11:47:40;;;;;;;;;;;2.60;99.90;;;;;;7342758;19;110250;-89
2023/01/22 11:50:19;;;;;;;;;;;2.50;99.90;;;;;;7343273;19;110276;-90
2023/01/22 11:52:49;;;;;;;;;;;2.50;99.90;;;;;;7345789;19;108461;-90
2023/01/22 11:55:38;;;;;;;;;;;2.60;99.90;;;;;;7349844;19;111590;-90
2023/01/22 11:58:11;;;;;;;;;;;2.60;99.90;;;;;;7345784;19;108994;-90
2023/01/22 12:00:53;;;;;;;;;;;2.60;99.90;;;;;;7342146;19;111518;-89
2023/01/22 12:03:43;;;;;;;;;;;2.60;99.90;;;;;;7342212;19;111856;-91
2023/01/22 12:06:11;;;;;;;;;;;2.50;99.90;;;;;;7343447;19;108793;-89
2023/01/22 12:08:46;;;;;;;;;;;2.60;99.90;;;;;;7340127;19;112518;-90
2023/01/22 12:11:32;;;;;;;;;;;2.60;99.90;;;;;;7342944;19;111685;-89
2023/01/22 12:14:10;;;;;;;;;;;2.70;99.90;;;;;;7339972;19;109658;-89
2023/01/22 12:16:37;;;;;;;;;;;2.60;99.90;;;;;;7342262;19;109479;-89
2023/01/22 12:19:04;;;;;;;;;;;2.70;99.90;;;;;;7347206;19;110260;-88
2023/01/22 12:21:31;;;;;;;;;;;2.70;99.90;;;;;;7338949;19;110006;-90
2023/01/22 12:24:03;;;;;;;;;;;2.70;99.90;;;;;;7344940;19;113239;-90
2023/01/22 12:26:36;;;;;;;;;;;2.70;99.90;;;;;;7342063;19;108646;-92
2023/01/22 12:29:12;;;;;;;;;;;2.70;99.90;;;;;;7344864;19;112383;-91
2023/01/22 12:32:03;;;;;;;;;;;2.60;99.90;;;;;;7343594;19;113235;-91
2023/01/22 12:34:33;;;;;;;;;;;2.70;99.90;;;;;;7343114;19;109789;-89
2023/01/22 12:37:01;;;;;;;;;;;2.60;99.90;;;;;;7345677;19;112056;-91
2023/01/22 12:39:40;;;;;;;;;;;2.70;99.90;;;;;;7341592;19;110274;-89
2023/01/22 12:42:13;;;;;;;;;;;2.80;99.90;;;;;;7349610;19;108753;-88
2023/01/22 12:45:09;;;;;;;;;;;2.70;99.90;;;;;;7341515;19;112730;-88
2023/01/22 12:47:51;;;;;;;;;;;2.80;99.90;;;;;;7339610;19;108895;-88
2023/01/22 12:50:21;;;;;;;;;;;2.80;99.90;;;;;;7337574;19;109298;-88
2023/01/22 12:52:57;;;;;;;;;;;2.80;99.90;;;;;;7341132;19;110754;-89
2023/01/22 12:55:29;;;;;;;;;;;2.80;99.90;;;;;;7339804;19;110152;-90
2023/01/22 12:57:57;;;;;;;;;;;2.90;99.90;;;;;;7341287;19;111168;-89
2023/01/22 13:00:33;;;;;;;;;;;2.90;99.90;;;;;;7341660;19;110983;-89
2023/01/22 13:03:02;;;;;;;;;;;2.90;99.90;;;;;;7341873;19;109398;-89
2023/01/22 13:05:28;;;;;;;;;;;2.90;99.90;;;;;;7333535;19;111922;-90
2023/01/22 13:08:18;;;;;;;;;;;2.80;99.90;;;;;;7337680;19;109259;-89
2023/01/22 13:10:52;;;;;;;;;;;2.80;99.90;;;;;;7336041;19;110623;-90
2023/01/22 13:13:22;;;;;;;;;;;2.80;99.90;;;;;;7341246;19;112906;-90
2023/01/22 13:15:51;;;;;;;;;;;2.80;99.90;;;;;;7336256;19;108849;-91
2023/01/22 13:18:20;;;;;;;;;;;2.90;99.90;;;;;;7338640;19;110736;-90
2023/01/22 13:20:52;;;;;;;;;;;2.90;99.90;;;;;;7341999;19;111504;-90
2023/01/22 13:23:19;;;;;;;;;;;2.90;99.90;;;;;;7341858;19;108558;-90
2023/01/22 13:25:51;;;;;;;;;;;2.90;99.90;;;;;;7350062;19;111219;-92
2023/01/22 13:28:19;;;;;;;;;;;2.90;99.90;;;;;;7340072;19;108566;-90
2023/01/22 13:30:56;;;;;;;;;;;2.90;99.90;;;;;;7336346;19;109226;-89
2023/01/22 13:33:23;;;;;;;;;;;2.90;99.90;;;;;;7335950;19;111529;-90
2023/01/22 13:35:50;;;;;;;;;;;2.90;99.90;;;;;;7337041;19;109178;-89
2023/01/22 13:38:20;;;;;;;;;;;3.00;99.90;;;;;;7335902;19;111854;-89
2023/01/22 13:40:48;;;;;;;;;;;3.00;99.90;;;;;;7335635;19;109268;-90
2023/01/22 13:43:18;;;;;;;;;;;3.00;99.90;;;;;;7333067;19;112180;-89
2023/01/22 13:45:45;;;;;;;;;;;3.00;99.90;;;;;;7335454;19;112059;-90
2023/01/22 13:48:17;;;;;;;;;;;3.00;99.90;;;;;;7341097;19;109045;-90
2023/01/22 13:50:57;;;;;;;;;;;3.00;99.90;;;;;;7333544;19;111595;-89
2023/01/22 13:53:27;;;;;;;;;;;3.00;99.90;;;;;;7333009;19;109931;-89
2023/01/22 13:55:54;;;;;;;;;;;3.00;99.90;;;;;;7334702;19;108692;-89
2023/01/22 13:58:26;;;;;;;;;;;3.00;99.90;;;;;;7337833;19;111324;-89
2023/01/22 14:01:04;;;;;;;;;;;3.00;99.90;;;;;;7335083;19;110365;-88
2023/01/22 14:03:31;;;;;;;;;;;2.80;99.90;;;;;;7338489;19;108652;-89
2023/01/22 14:06:06;;;;;;;;;;;2.90;99.90;;;;;;7342781;19;109153;-89
2023/01/22 14:08:51;;;;;;;;;;;2.90;99.90;;;;;;7341191;19;110460;-89
2023/01/22 14:11:18;;;;;;;;;;;2.90;99.90;;;;;;7346410;19;108928;-89
2023/01/22 14:13:46;;;;;;;;;;;2.90;99.90;;;;;;7344209;19;110012;-89
2023/01/22 14:16:14;;;;;;;;;;;3.00;99.90;;;;;;7341128;19;108887;-89
2023/01/22 14:18:42;;;;;;;;;;;3.00;99.90;;;;;;7337550;19;109217;-89
2023/01/22 14:21:09;;;;;;;;;;;3.00;99.90;;;;;;7338438;19;112366;-88
2023/01/22 14:23:35;;;;;;;;;;;2.90;99.90;;;;;;7339382;19;108693;-85
2023/01/22 14:26:04;;;;;;;;;;;2.70;99.90;;;;;;7339347;19;110715;-88
2023/01/22 14:28:35;;;;;;;;;;;2.70;99.90;;;;;;7335809;19;109146;-88
2023/01/22 14:31:02;;;;;;;;;;;2.80;99.90;;;;;;7329402;19;110385;-88
2023/01/22 14:33:30;;;;;;;;;;;2.70;99.90;;;;;;7338613;19;109134;-88
2023/01/22 14:35:57;;;;;;;;;;;2.70;99.90;;;;;;7338127;19;110729;-88
2023/01/22 14:38:25;;;;;;;;;;;2.70;99.90;;;;;;7339760;19;110311;-88
2023/01/22 14:40:52;;;;;;;;;;;2.70;99.90;;;;;;7340218;19;113188;-88
2023/01/22 14:43:19;;;;;;;;;;;2.70;99.90;;;;;;7337891;19;109412;-87
2023/01/22 14:45:47;;;;;;;;;;;2.70;99.90;;;;;;7338326;19;110619;-88
2023/01/22 14:48:15;;;;;;;;;;;2.70;99.90;;;;;;7338839;19;110620;-88
2023/01/22 14:50:42;;;;;;;;;;;2.70;99.90;;;;;;7339666;19;111567;-88
2023/01/22 14:53:09;;;;;;;;;;;2.70;99.90;;;;;;7338491;19;108309;-88
2023/01/22 14:55:36;;;;;;;;;;;2.80;99.90;;;;;;7342196;19;110635;-88
2023/01/22 14:58:04;;;;;;;;;;;2.80;99.90;;;;;;7337761;19;109320;-87
2023/01/22 15:00:32;;;;;;;;;;;2.70;99.90;;;;;;7333998;19;110505;-88